Time;durP1;ratioP1;P1;durP2;ratioP2;P2;SDS_P1;SDS_P2;PMS_P1;PMS_P2;Temp;Humidity;BMP_temperature;BMP_pressure;BME280_temperature;BME280_humidity;BME280_pressure;Samples;Min_cycle;Max_cycle;Signal;HPM_P1;HPM_P2
2023/07/09 00:01:14;;;;;;;5.22;2.60;;;;;;;17.84;56.70;95201.06;5012221;28;20044;-70
2023/07/09 00:03:39;;;;;;;6.82;2.60;;;;;;;17.80;55.73;95199.78;5000365;28;20072;-70
2023/07/09 00:06:04;;;;;;;7.28;2.60;;;;;;;17.80;55.30;95191.88;5034087;28;20062;-70
2023/07/09 00:08:31;;;;;;;3.25;2.47;;;;;;;17.70;56.41;95183.28;5000484;28;20377;-70
2023/07/09 00:10:56;;;;;;;6.25;2.50;;;;;;;17.64;55.78;95171.63;5000087;28;20030;-70
2023/07/09 00:13:23;;;;;;;5.13;2.53;;;;;;;17.70;56.29;95179.84;5000314;28;20045;-70
2023/07/09 00:15:48;;;;;;;5.10;2.60;;;;;;;17.79;56.76;95179.72;4984101;28;20096;-70
2023/07/09 00:18:13;;;;;;;5.63;2.55;;;;;;;17.84;54.51;95181.88;5016566;28;20080;-70
2023/07/09 00:20:41;;;;;;;4.85;2.70;;;;;;;17.79;55.07;95171.84;5016294;28;20499;-70
2023/07/09 00:23:06;;;;;;;3.53;2.55;;;;;;;17.92;53.81;95178.44;5016765;28;20032;-70
2023/07/09 00:25:35;;;;;;;7.03;3.03;;;;;;;17.90;56.05;95169.88;5016284;28;20029;-70
2023/07/09 00:28:01;;;;;;;3.88;2.70;;;;;;;17.83;54.77;95175.78;5000931;28;20037;-70
2023/07/09 00:30:27;;;;;;;3.83;2.47;;;;;;;17.82;54.09;95155.75;5033915;28;20108;-70
2023/07/09 00:32:54;;;;;;;3.58;2.50;;;;;;;17.94;56.12;95177.28;4999844;28;20029;-70
2023/07/09 00:35:19;;;;;;;6.93;2.80;;;;;;;17.83;54.43;95161.84;5033845;28;20030;-70
2023/07/09 00:37:45;;;;;;;3.25;2.40;;;;;;;17.96;54.63;95172.66;4999818;28;20415;-70
2023/07/09 00:40:18;;;;;;;5.03;2.60;;;;;;;17.96;56.62;95174.47;5016035;28;20033;-71
2023/07/09 00:42:46;;;;;;;4.32;2.63;;;;;;;17.95;52.76;95170.22;5016168;28;20025;-70
2023/07/09 00:45:23;;;;;;;4.97;2.88;;;;;;;18.03;53.50;95170.22;5016260;28;20123;-70
2023/07/09 00:47:53;;;;;;;3.92;2.60;;;;;;;18.04;52.90;95162.16;4989309;28;20029;-70
2023/07/09 00:50:47;;;;;;;3.92;2.50;;;;;;;18.07;54.89;95171.53;4996397;28;20029;-70
2023/07/09 00:53:25;;;;;;;4.75;2.70;;;;;;;18.07;53.96;95158.38;5002787;28;20033;-70
2023/07/09 00:55:56;;;;;;;4.43;2.47;;;;;;;18.11;55.10;95161.50;5000279;28;20056;-71
2023/07/09 00:58:21;;;;;;;6.70;2.58;;;;;;;18.01;54.65;95169.56;5016128;28;20034;-70
2023/07/09 01:00:52;;;;;;;5.93;2.67;;;;;;;17.94;53.66;95163.28;4999265;28;20041;-70
2023/07/09 01:03:42;;;;;;;3.58;2.83;;;;;;;18.10;51.36;95165.94;5000183;28;20031;-70
2023/07/09 01:06:07;;;;;;;6.00;2.60;;;;;;;17.97;52.48;95152.44;4995659;28;20099;-70
2023/07/09 01:08:34;;;;;;;5.80;2.70;;;;;;;18.13;53.50;95170.84;4978471;28;20041;-70
2023/07/09 01:11:00;;;;;;;5.88;2.72;;;;;;;18.05;53.88;95165.59;4995097;28;20080;-70
2023/07/09 01:13:26;;;;;;;7.00;2.70;;;;;;;17.90;53.67;95154.94;4977575;28;20034;-70
2023/07/09 01:15:52;;;;;;;3.55;2.65;;;;;;;17.90;53.49;95164.63;4978572;28;20419;-70
2023/07/09 01:18:17;;;;;;;4.70;2.70;;;;;;;17.89;53.70;95155.09;4979250;28;20042;-70
2023/07/09 01:20:43;;;;;;;6.20;2.83;;;;;;;17.88;53.84;95166.59;4994253;28;20057;-70
2023/07/09 01:23:09;;;;;;;3.78;2.72;;;;;;;17.79;54.25;95168.38;4995669;28;20479;-70
2023/07/09 01:25:36;;;;;;;5.55;3.30;;;;;;;17.77;54.78;95154.56;4979383;28;20041;-70
2023/07/09 01:28:02;;;;;;;4.80;2.63;;;;;;;17.75;55.42;95157.34;4963331;28;20030;-70
2023/07/09 01:30:33;;;;;;;8.07;3.03;;;;;;;17.51;55.65;95159.94;4995600;28;20030;-70
2023/07/09 01:33:00;;;;;;;4.15;2.90;;;;;;;17.45;56.04;95150.09;4979392;28;20042;-70
2023/07/09 01:35:26;;;;;;;3.53;2.70;;;;;;;17.42;56.15;95153.84;4995030;28;20466;-70
2023/07/09 01:37:51;;;;;;;5.47;3.08;;;;;;;17.34;56.54;95144.16;4979013;28;20030;-70
2023/07/09 01:40:18;;;;;;;4.03;2.80;;;;;;;17.38;56.74;95153.38;4995343;28;20491;-71
2023/07/09 01:42:44;;;;;;;3.70;2.97;;;;;;;17.30;56.79;95155.97;4995473;28;20112;-70
2023/07/09 01:45:12;;;;;;;4.28;2.80;;;;;;;17.16;57.21;95146.91;4979107;28;20041;-70
2023/07/09 01:47:38;;;;;;;5.35;2.88;;;;;;;17.16;57.78;95164.44;4995765;28;20105;-70
2023/07/09 01:50:05;;;;;;;4.32;3.00;;;;;;;17.08;58.08;95175.75;4978893;28;20148;-70
2023/07/09 01:52:31;;;;;;;5.72;2.90;;;;;;;17.12;58.10;95179.69;4995089;28;20037;-70
2023/07/09 01:54:57;;;;;;;3.22;2.70;;;;;;;17.01;58.56;95173.91;4978775;28;20046;-70
2023/07/09 01:57:24;;;;;;;4.65;3.30;;;;;;;16.77;59.04;95167.56;4978938;28;20506;-70
2023/07/09 01:59:54;;;;;;;3.78;3.10;;;;;;;16.74;59.02;95162.56;4994972;28;20084;-70
2023/07/09 02:02:20;;;;;;;6.65;2.90;;;;;;;16.80;59.96;95179.53;4978582;28;20040;-70
2023/07/09 02:04:50;;;;;;;5.07;3.10;;;;;;;16.84;60.19;95184.31;5014407;28;20507;-70
2023/07/09 02:07:15;;;;;;;5.90;3.30;;;;;;;16.70;60.62;95187.50;4998661;28;20444;-70
2023/07/09 02:09:41;;;;;;;4.75;3.25;;;;;;;16.42;61.54;95174.53;5014607;28;20116;-70
2023/07/09 02:12:08;;;;;;;4.95;3.70;;;;;;;16.39;62.20;95185.34;4998088;28;20463;-71
2023/07/09 02:14:33;;;;;;;6.15;3.83;;;;;;;16.28;62.79;95188.22;5014543;28;20037;-70
2023/07/09 02:16:58;;;;;;;4.30;3.35;;;;;;;16.20;61.39;95149.66;4997897;28;20029;-70
2023/07/09 02:19:24;;;;;;;5.38;3.15;;;;;;;16.24;61.84;95184.22;5032340;28;20029;-70
2023/07/09 02:21:49;;;;;;;4.65;3.40;;;;;;;16.14;62.26;95194.00;5014004;28;20037;-70
2023/07/09 02:24:15;;;;;;;4.28;3.47;;;;;;;16.26;63.06;95195.38;5014275;28;20025;-70
2023/07/09 02:26:40;;;;;;;5.88;3.22;;;;;;;15.86;63.16;95183.63;4997714;28;20076;-70
2023/07/09 02:29:06;;;;;;;3.42;3.05;;;;;;;15.97;63.82;95196.47;4997740;28;20036;-70
2023/07/09 02:31:33;;;;;;;4.55;3.20;;;;;;;15.92;63.98;95195.28;5013923;28;20025;-70
2023/07/09 02:33:59;;;;;;;5.18;3.28;;;;;;;15.77;64.04;95195.00;5014208;28;20116;-70
2023/07/09 02:36:24;;;;;;;4.85;3.05;;;;;;;15.86;64.37;95204.56;4981393;28;20049;-70
2023/07/09 02:38:50;;;;;;;4.68;3.55;;;;;;;15.69;64.88;95200.16;5031782;28;20029;-70
2023/07/09 02:41:15;;;;;;;6.80;3.72;;;;;;;15.25;65.89;95185.09;5013886;28;20029;-70
2023/07/09 02:43:41;;;;;;;7.65;4.50;;;;;;;15.35;65.97;95205.97;5013931;28;20064;-70
2023/07/09 02:46:06;;;;;;;5.03;3.95;;;;;;;15.34;66.09;95209.56;4981161;28;20032;-70
2023/07/09 02:48:32;;;;;;;7.43;3.90;;;;;;;15.15;66.87;95207.88;4997553;28;20037;-69
2023/07/09 02:50:57;;;;;;;6.82;4.50;;;;;;;15.01;67.45;95211.78;4997327;28;20029;-69
2023/07/09 02:53:23;;;;;;;6.00;3.75;;;;;;;14.99;67.29;95218.97;5013730;28;20036;-70
2023/07/09 02:55:48;;;;;;;4.63;3.80;;;;;;;15.11;66.25;95212.56;5031189;28;20495;-70
2023/07/09 02:58:13;;;;;;;5.07;3.70;;;;;;;15.11;66.24;95214.38;5031400;28;20033;-70
2023/07/09 03:00:39;;;;;;;5.72;3.30;;;;;;;15.06;65.15;95206.94;5031060;28;20508;-69
2023/07/09 03:03:04;;;;;;;4.22;3.10;;;;;;;15.12;65.47;95211.59;5013560;28;20075;-70
2023/07/09 03:05:29;;;;;;;4.88;3.10;;;;;;;15.30;64.61;95229.16;5030926;28;20057;-70
2023/07/09 03:07:55;;;;;;;5.22;3.10;;;;;;;15.34;64.52;95231.31;5013686;28;20033;-70
2023/07/09 03:10:20;;;;;;;5.88;3.28;;;;;;;15.34;63.64;95227.88;5013446;28;20403;-69
2023/07/09 03:12:46;;;;;;;5.30;3.20;;;;;;;15.36;63.60;95224.16;4996650;28;20530;-70
2023/07/09 03:15:11;;;;;;;5.28;2.75;;;;;;;15.40;63.20;95219.44;5012776;28;20026;-70
2023/07/09 03:17:37;;;;;;;4.38;2.95;;;;;;;15.21;63.25;95212.53;4996848;28;20087;-70
2023/07/09 03:20:02;;;;;;;3.25;2.78;;;;;;;15.48;63.05;95227.38;5030768;28;20107;-70
2023/07/09 03:22:28;;;;;;;4.47;3.25;;;;;;;15.46;63.28;95229.34;5029504;28;20109;-70
2023/07/09 03:24:53;;;;;;;4.28;3.08;;;;;;;15.47;63.13;95225.75;5013135;28;20454;-70
2023/07/09 03:27:19;;;;;;;9.93;4.75;;;;;;;15.41;63.89;95236.81;5029470;28;20021;-70
2023/07/09 03:29:44;;;;;;;12.90;6.72;;;;;;;15.23;66.27;95241.16;5030717;28;20034;-70
2023/07/09 03:32:09;;;;;;;5.72;3.97;;;;;;;15.17;65.92;95227.69;4996832;28;20503;-70
2023/07/09 03:34:35;;;;;;;5.55;4.00;;;;;;;15.32;66.48;95222.81;5030645;28;20037;-69
2023/07/09 03:37:00;;;;;;;5.43;3.70;;;;;;;15.46;66.13;95237.22;5030771;28;20041;-69
2023/07/09 03:39:26;;;;;;;6.85;4.28;;;;;;;15.36;66.88;95239.88;5031065;28;20029;-70
2023/07/09 03:41:51;;;;;;;6.18;4.05;;;;;;;15.58;66.20;95233.41;5012930;28;20091;-70
2023/07/09 03:44:16;;;;;;;5.88;3.60;;;;;;;15.44;66.52;95223.44;5012740;28;20435;-70
2023/07/09 03:46:42;;;;;;;4.60;3.30;;;;;;;15.42;66.53;95238.44;5013081;28;20037;-69
2023/07/09 03:49:07;;;;;;;5.18;4.00;;;;;;;15.27;66.08;95234.69;5029219;28;20025;-70
2023/07/09 03:51:32;;;;;;;4.90;3.47;;;;;;;15.47;66.01;95245.88;5013007;28;20036;-69
2023/07/09 03:53:58;;;;;;;6.20;4.28;;;;;;;15.51;66.20;95234.13;5013121;28;20075;-70
2023/07/09 03:56:23;;;;;;;5.35;3.83;;;;;;;15.51;66.62;95241.97;5012954;28;20505;-69
2023/07/09 03:58:49;;;;;;;4.18;3.00;;;;;;;15.67;64.74;95234.31;5013006;28;20041;-69
2023/07/09 04:01:16;;;;;;;3.70;2.83;;;;;;;15.72;63.32;95236.53;5012805;28;20480;-69
2023/07/09 04:03:41;;;;;;;3.55;2.80;;;;;;;15.76;64.93;95227.38;5013086;28;20029;-70
2023/07/09 04:06:07;;;;;;;5.15;3.10;;;;;;;15.99;65.77;95241.72;5009296;28;20089;-70
2023/07/09 04:08:32;;;;;;;4.45;3.03;;;;;;;16.15;64.08;95227.91;4993392;28;20030;-70
2023/07/09 04:11:01;;;;;;;4.90;3.10;;;;;;;16.43;64.94;95239.09;4976946;28;20220;-69
2023/07/09 04:13:27;;;;;;;6.20;3.20;;;;;;;17.02;62.81;95244.59;4977197;28;20472;-70
2023/07/09 04:15:53;;;;;;;6.28;3.15;;;;;;;18.24;59.53;95236.25;4993136;28;20042;-70
2023/07/09 04:18:19;;;;;;;3.60;2.83;;;;;;;19.14;56.20;95219.56;4993217;28;20037;-70
2023/07/09 04:20:48;;;;;;;3.92;2.72;;;;;;;20.26;54.33;95234.13;5009167;28;20046;-70
2023/07/09 04:23:13;;;;;;;5.63;3.25;;;;;;;20.71;51.36;95247.47;4977095;28;20030;-70
2023/07/09 04:25:39;;;;;;;4.65;3.50;;;;;;;21.47;50.00;95250.81;4995044;28;20092;-70
2023/07/09 04:28:04;;;;;;;6.18;3.90;;;;;;;22.16;47.89;95247.75;4996838;28;20037;-70
2023/07/09 04:30:30;;;;;;;5.28;4.00;;;;;;;22.70;46.52;95255.19;4996655;28;20041;-70
2023/07/09 04:32:55;;;;;;;5.30;3.65;;;;;;;23.23;45.14;95246.00;5014245;28;20025;-70
2023/07/09 04:35:21;;;;;;;7.20;3.50;;;;;;;23.88;42.84;95254.53;4996858;28;20061;-70
2023/07/09 04:37:46;;;;;;;5.85;4.07;;;;;;;24.11;42.06;95256.84;4980367;28;20407;-70
2023/07/09 04:40:12;;;;;;;5.20;3.88;;;;;;;24.45;41.65;95262.03;4996517;28;20232;-70
2023/07/09 04:42:38;;;;;;;5.80;3.70;;;;;;;24.85;40.72;95259.41;4996692;28;20026;-70
2023/07/09 04:45:04;;;;;;;12.60;4.18;;;;;;;24.88;40.24;95253.69;4996577;28;20037;-70
2023/07/09 04:47:29;;;;;;;5.45;3.60;;;;;;;24.99;40.38;95257.56;4996372;28;20022;-71
2023/07/09 04:49:55;;;;;;;10.35;3.50;;;;;;;24.41;42.30;95252.00;5013801;28;20029;-70
2023/07/09 04:52:22;;;;;;;5.53;3.47;;;;;;;23.83;42.59;95260.41;5013727;28;20025;-70
2023/07/09 04:54:47;;;;;;;7.20;4.07;;;;;;;23.63;43.68;95253.16;4980450;28;20034;-70
2023/07/09 04:57:13;;;;;;;5.75;4.00;;;;;;;23.03;44.80;95257.31;4980119;28;20451;-70
2023/07/09 04:59:38;;;;;;;6.10;4.13;;;;;;;23.13;44.92;95263.09;4963848;28;20476;-70
2023/07/09 05:02:04;;;;;;;4.82;3.50;;;;;;;22.89;45.29;95263.50;4979914;28;20092;-70
2023/07/09 05:04:30;;;;;;;8.23;3.75;;;;;;;22.57;47.40;95256.94;4996215;28;20096;-71
2023/07/09 05:06:56;;;;;;;4.53;3.20;;;;;;;22.52;48.14;95270.72;4999096;28;20061;-70
2023/07/09 05:09:23;;;;;;;7.25;3.50;;;;;;;22.28;48.51;95264.78;5015755;28;20558;-70
2023/07/09 05:11:48;;;;;;;5.43;3.30;;;;;;;21.15;51.60;95279.22;4999401;28;20030;-70
2023/07/09 05:14:14;;;;;;;4.28;3.65;;;;;;;20.75;52.00;95256.66;5015677;28;20304;-70
2023/07/09 05:16:39;;;;;;;6.65;3.70;;;;;;;20.77;52.90;95273.16;5015389;28;20025;-70
2023/07/09 05:19:06;;;;;;;9.13;4.20;;;;;;;20.53;53.13;95259.19;5033450;28;20064;-70
2023/07/09 05:21:32;;;;;;;5.57;4.10;;;;;;;20.49;53.93;95264.94;4999162;28;20033;-70
2023/07/09 05:23:57;;;;;;;6.18;3.97;;;;;;;20.34;54.27;95278.09;5015415;28;20525;-70
2023/07/09 05:26:23;;;;;;;7.32;4.00;;;;;;;20.43;54.76;95276.22;5032982;28;20033;-70
2023/07/09 05:28:48;;;;;;;4.88;3.72;;;;;;;20.42;55.56;95285.09;5033039;28;20030;-70
2023/07/09 05:31:13;;;;;;;4.85;3.33;;;;;;;20.26;56.38;95281.59;5015154;28;20053;-70
2023/07/09 05:33:39;;;;;;;5.10;3.03;;;;;;;20.33;57.38;95265.06;5015145;28;20502;-70
2023/07/09 05:36:04;;;;;;;5.55;3.20;;;;;;;20.31;57.61;95270.53;5032087;28;20108;-70
2023/07/09 05:38:30;;;;;;;6.55;3.67;;;;;;;20.29;54.47;95262.78;5014846;28;20037;-70
2023/07/09 05:41:03;;;;;;;6.57;3.75;;;;;;;20.40;54.10;95272.09;5014806;28;20037;-70
2023/07/09 05:43:29;;;;;;;5.93;3.45;;;;;;;20.50;52.17;95266.56;4998927;28;20380;-70
2023/07/09 05:45:54;;;;;;;6.55;3.65;;;;;;;20.63;50.36;95261.56;4998641;28;20563;-70
2023/07/09 05:48:19;;;;;;;5.47;3.58;;;;;;;20.85;50.54;95270.44;5014781;28;20040;-70
2023/07/09 05:50:45;;;;;;;5.03;3.08;;;;;;;21.40;52.29;95279.00;5014632;28;20041;-70
2023/07/09 05:53:10;;;;;;;6.18;3.45;;;;;;;21.53;50.99;95270.41;5014725;28;20084;-70
2023/07/09 05:55:35;;;;;;;6.43;3.30;;;;;;;21.34;50.69;95258.53;5032320;28;20519;-70
2023/07/09 05:58:01;;;;;;;5.32;3.28;;;;;;;21.44;51.56;95263.59;5014608;28;20030;-70
2023/07/09 06:00:26;;;;;;;5.68;3.53;;;;;;;21.38;51.21;95268.59;4998200;28;20033;-70
2023/07/09 06:02:52;;;;;;;3.78;3.13;;;;;;;21.24;50.13;95266.75;5032126;28;20033;-70
2023/07/09 06:05:17;;;;;;;6.30;4.00;;;;;;;21.59;51.59;95265.22;5031955;28;20041;-71
2023/07/09 06:07:43;;;;;;;6.38;3.90;;;;;;;21.55;48.63;95265.75;4998081;28;20033;-70
2023/07/09 06:10:08;;;;;;;5.72;3.60;;;;;;;21.90;48.05;95256.22;5014462;28;20033;-70
2023/07/09 06:12:34;;;;;;;11.25;3.80;;;;;;;21.98;48.45;95261.41;4997955;28;20028;-71
2023/07/09 06:14:59;;;;;;;4.55;3.30;;;;;;;21.91;47.48;95262.34;4997994;28;20041;-70
2023/07/09 06:17:25;;;;;;;4.63;3.08;;;;;;;22.06;48.30;95260.47;5014325;28;20079;-70
2023/07/09 06:19:50;;;;;;;9.07;4.18;;;;;;;22.28;48.37;95256.84;5014115;28;20439;-70
2023/07/09 06:22:16;;;;;;;6.32;3.33;;;;;;;22.61;45.81;95255.53;5031897;28;20486;-70
2023/07/09 06:24:41;;;;;;;6.50;3.45;;;;;;;22.49;46.37;95257.88;4997892;28;20450;-70
2023/07/09 06:27:06;;;;;;;5.43;3.50;;;;;;;22.47;46.90;95249.28;4997821;28;20021;-71
2023/07/09 06:29:32;;;;;;;4.80;3.20;;;;;;;22.87;44.39;95257.56;5014254;28;20025;-71
2023/07/09 06:31:57;;;;;;;5.25;2.95;;;;;;;23.05;43.88;95262.41;5030450;28;20033;-70
2023/07/09 06:34:23;;;;;;;7.68;2.72;;;;;;;23.26;42.75;95256.22;5014098;28;20438;-70
2023/07/09 06:36:48;;;;;;;3.88;3.00;;;;;;;23.18;43.39;95255.38;4997664;28;20388;-70
2023/07/09 06:39:13;;;;;;;5.47;2.70;;;;;;;23.23;42.53;95248.66;5031459;28;20033;-71
2023/07/09 06:41:39;;;;;;;4.03;2.83;;;;;;;23.31;42.53;95267.06;5013684;28;20033;-70
2023/07/09 06:44:08;;;;;;;9.00;3.10;;;;;;;23.52;42.73;95253.72;5031834;28;20499;-71
2023/07/09 06:46:33;;;;;;;6.85;3.05;;;;;;;23.58;40.99;95241.50;5013681;28;20120;-71
2023/07/09 06:48:59;;;;;;;7.07;2.78;;;;;;;23.70;41.68;95252.38;4997249;28;20112;-70
2023/07/09 06:51:24;;;;;;;6.82;3.13;;;;;;;23.97;41.33;95254.13;5013825;28;20605;-71
2023/07/09 06:53:51;;;;;;;5.38;3.10;;;;;;;24.06;41.14;95258.22;4997378;28;20037;-71
2023/07/09 06:56:16;;;;;;;4.43;3.05;;;;;;;24.17;41.06;95251.53;5013680;28;20033;-70
2023/07/09 06:58:42;;;;;;;8.43;2.88;;;;;;;24.56;39.43;95254.50;5013614;28;20033;-71
2023/07/09 07:01:10;;;;;;;4.07;2.78;;;;;;;24.41;38.90;95249.34;5013413;28;20419;-70
2023/07/09 07:03:36;;;;;;;7.72;3.15;;;;;;;24.24;39.97;95254.22;4998029;28;20109;-70
2023/07/09 07:06:02;;;;;;;6.32;3.10;;;;;;;24.13;40.14;95246.84;4980641;28;20571;-70
2023/07/09 07:08:28;;;;;;;4.80;2.75;;;;;;;24.55;40.51;95247.56;4997017;28;20040;-71
2023/07/09 07:11:01;;;;;;;5.00;2.75;;;;;;;24.43;38.89;95252.59;4980950;28;20412;-70
2023/07/09 07:13:30;;;;;;;3.85;2.85;;;;;;;24.63;39.26;95247.34;4999127;28;20099;-70
2023/07/09 07:15:55;;;;;;;8.07;2.78;;;;;;;24.89;38.65;95244.69;4997325;28;20043;-70
2023/07/09 07:18:21;;;;;;;4.85;2.97;;;;;;;24.69;39.15;95250.00;5031096;28;20403;-70
2023/07/09 07:20:46;;;;;;;3.90;2.75;;;;;;;24.40;39.45;95242.38;5013175;28;20083;-71
2023/07/09 07:23:11;;;;;;;7.07;3.13;;;;;;;24.58;39.60;95241.84;5013253;28;20408;-71
2023/07/09 07:25:37;;;;;;;4.70;2.80;;;;;;;24.80;39.73;95242.44;5013233;28;20500;-70
2023/07/09 07:28:03;;;;;;;5.43;2.83;;;;;;;25.13;38.79;95229.09;5013122;28;20029;-71
2023/07/09 07:30:28;;;;;;;5.60;2.70;;;;;;;25.13;38.58;95245.06;5013382;28;20069;-70
2023/07/09 07:32:53;;;;;;;4.30;2.80;;;;;;;25.34;38.46;95231.56;5030750;28;20464;-70
2023/07/09 07:35:19;;;;;;;3.47;2.70;;;;;;;25.16;37.94;95220.78;5030735;28;20033;-70
2023/07/09 07:37:44;;;;;;;5.50;2.70;;;;;;;25.08;38.38;95228.94;5013130;28;20044;-71
2023/07/09 07:40:10;;;;;;;7.55;2.97;;;;;;;24.86;39.08;95223.03;4996678;28;20030;-70
2023/07/09 07:42:36;;;;;;;4.03;2.60;;;;;;;25.06;39.51;95231.78;5013125;28;20033;-70
2023/07/09 07:45:02;;;;;;;3.72;2.92;;;;;;;24.94;39.33;95220.97;5013025;28;20083;-70
2023/07/09 07:47:27;;;;;;;5.80;3.25;;;;;;;25.41;37.75;95221.72;5013106;28;20037;-71
2023/07/09 07:49:53;;;;;;;5.75;2.95;;;;;;;25.46;38.19;95222.94;5013014;28;20021;-70
2023/07/09 07:52:19;;;;;;;5.45;2.75;;;;;;;25.51;38.75;95233.75;5012924;28;20098;-71
2023/07/09 07:54:44;;;;;;;7.70;3.40;;;;;;;25.37;37.60;95227.66;4996555;28;20480;-70
2023/07/09 07:57:10;;;;;;;5.10;2.72;;;;;;;25.15;36.97;95229.75;4996618;28;20022;-70
2023/07/09 07:59:36;;;;;;;4.82;2.92;;;;;;;25.21;36.79;95226.25;5013689;28;20034;-70
2023/07/09 08:02:02;;;;;;;5.00;2.90;;;;;;;25.19;36.86;95228.31;5034304;28;20567;-71
2023/07/09 08:04:28;;;;;;;4.10;2.60;;;;;;;25.51;37.88;95231.09;5000423;28;20026;-71
2023/07/09 08:06:53;;;;;;;3.60;2.63;;;;;;;25.53;36.96;95221.06;4997263;28;20476;-71
2023/07/09 08:09:19;;;;;;;3.88;2.83;;;;;;;25.81;38.08;95216.25;4981077;28;20173;-70
2023/07/09 08:11:44;;;;;;;5.65;2.80;;;;;;;26.17;36.96;95214.84;4997091;28;20052;-70
2023/07/09 08:14:10;;;;;;;4.55;2.92;;;;;;;26.06;36.42;95211.03;4980954;28;20062;-70
2023/07/09 08:16:35;;;;;;;5.97;2.72;;;;;;;25.98;35.59;95202.47;4980918;28;20030;-70
2023/07/09 08:19:01;;;;;;;5.25;2.65;;;;;;;26.10;35.47;95195.44;4997091;28;20034;-70
2023/07/09 08:21:26;;;;;;;4.85;2.80;;;;;;;26.26;36.60;95207.41;4980445;28;20034;-71
2023/07/09 08:23:52;;;;;;;4.13;2.70;;;;;;;26.14;36.07;95193.19;4980654;28;20029;-70
2023/07/09 08:26:17;;;;;;;4.63;2.80;;;;;;;25.82;35.99;95196.56;4964467;28;20038;-70
2023/07/09 08:28:43;;;;;;;7.25;3.10;;;;;;;25.77;37.17;95207.06;4980632;28;20059;-70
2023/07/09 08:31:09;;;;;;;4.38;2.83;;;;;;;25.97;37.24;95187.56;4964418;28;20034;-70
2023/07/09 08:33:34;;;;;;;3.78;3.00;;;;;;;25.80;36.97;95197.84;4964327;28;20037;-70
2023/07/09 08:36:00;;;;;;;5.18;2.90;;;;;;;25.63;36.51;95198.31;4980414;28;20026;-70
2023/07/09 08:38:25;;;;;;;5.82;3.05;;;;;;;25.80;37.09;95214.63;5014305;28;20498;-70
2023/07/09 08:40:56;;;;;;;9.98;3.10;;;;;;;26.20;35.93;95205.63;4996483;28;20033;-70
2023/07/09 08:43:52;;;;;;;3.88;2.83;;;;;;;26.13;36.42;95205.66;4996870;28;20034;-71
2023/07/09 08:46:23;;;;;;;3.65;3.00;;;;;;;25.98;35.60;95205.13;4996408;28;20049;-70
2023/07/09 08:48:49;;;;;;;5.18;3.10;;;;;;;25.88;36.06;95205.59;5013740;28;20095;-70
2023/07/09 08:51:27;;;;;;;4.25;2.97;;;;;;;26.13;35.91;95191.53;4964099;28;20042;-70
2023/07/09 08:53:59;;;;;;;4.63;3.13;;;;;;;26.06;36.32;95196.91;4980439;28;20033;-70
2023/07/09 08:56:26;;;;;;;4.65;2.95;;;;;;;25.90;36.30;95195.56;4996253;28;20046;-71
2023/07/09 08:58:53;;;;;;;6.47;3.35;;;;;;;26.14;35.71;95201.97;4980096;28;20092;-70
2023/07/09 09:01:24;;;;;;;3.97;3.08;;;;;;;26.14;35.94;95196.66;4980026;28;20042;-71
2023/07/09 09:03:55;;;;;;;4.45;2.90;;;;;;;25.99;36.28;95190.78;4980173;28;20029;-71
2023/07/09 09:06:27;;;;;;;4.88;2.95;;;;;;;26.49;36.95;95197.03;5004875;28;20057;-71
2023/07/09 09:09:02;;;;;;;5.85;3.00;;;;;;;26.71;36.40;95205.47;5015651;28;20056;-70
2023/07/09 09:11:40;;;;;;;4.80;2.80;;;;;;;26.81;36.14;95201.50;5031958;28;20036;-71
2023/07/09 09:14:10;;;;;;;6.47;3.30;;;;;;;26.38;36.05;95208.34;5016398;28;20029;-72
2023/07/09 09:16:37;;;;;;;4.78;3.45;;;;;;;26.39;36.66;95206.53;4999541;28;20484;-71
2023/07/09 09:19:03;;;;;;;5.88;3.25;;;;;;;26.48;36.00;95195.38;4999271;28;20029;-71
2023/07/09 09:21:36;;;;;;;4.20;3.20;;;;;;;26.64;36.54;95194.06;5013944;28;20404;-70
2023/07/09 09:24:16;;;;;;;5.70;3.30;;;;;;;26.42;36.15;95184.78;4997565;28;20056;-73
2023/07/09 09:26:42;;;;;;;5.22;3.65;;;;;;;26.18;36.57;95189.03;4997771;28;20547;-74
2023/07/09 09:29:14;;;;;;;5.47;3.47;;;;;;;26.38;36.81;95189.72;5014011;28;20385;-74
2023/07/09 09:31:39;;;;;;;4.80;3.60;;;;;;;26.80;37.25;95195.38;5032055;28;20408;-73
2023/07/09 09:34:05;;;;;;;5.18;3.45;;;;;;;26.62;36.08;95180.13;5013947;28;20044;-73
2023/07/09 09:36:30;;;;;;;6.78;3.60;;;;;;;26.74;36.28;95185.56;5014939;28;20053;-74
2023/07/09 09:38:56;;;;;;;7.00;3.38;;;;;;;26.65;36.37;95195.69;5014704;28;20037;-74
2023/07/09 09:41:23;;;;;;;6.63;3.67;;;;;;;26.57;36.70;95193.28;5014956;28;20044;-74
2023/07/09 09:43:50;;;;;;;5.40;3.63;;;;;;;26.41;36.76;95177.81;4982376;28;20037;-74
2023/07/09 09:46:21;;;;;;;4.97;3.50;;;;;;;26.81;36.43;95188.19;4998915;28;20057;-74
2023/07/09 09:48:47;;;;;;;3.50;3.20;;;;;;;26.83;36.31;95180.75;4997819;28;20241;-74
2023/07/09 09:51:13;;;;;;;6.07;3.38;;;;;;;27.10;36.57;95176.00;4998501;28;20162;-74
2023/07/09 09:53:40;;;;;;;7.20;3.58;;;;;;;26.97;35.92;95176.97;4982280;28;20033;-74
2023/07/09 09:56:07;;;;;;;4.38;3.50;;;;;;;26.87;35.65;95158.78;4998634;28;20072;-74
2023/07/09 09:58:32;;;;;;;4.63;3.28;;;;;;;27.05;36.61;95179.34;4998412;28;20052;-75
2023/07/09 10:01:00;;;;;;;4.05;3.13;;;;;;;26.89;35.60;95177.25;4998123;28;20507;-74
2023/07/09 10:03:35;;;;;;;4.72;3.22;;;;;;;26.90;35.75;95171.69;4998876;28;20044;-75
2023/07/09 10:06:06;;;;;;;5.05;3.70;;;;;;;26.93;35.76;95159.78;4997718;28;20050;-75
2023/07/09 10:09:04;;;;;;;3.53;3.20;;;;;;;27.23;36.26;95180.41;4998759;28;20128;-74
2023/07/09 10:11:36;;;;;;;5.63;3.45;;;;;;;27.27;35.87;95168.25;5016987;28;20034;-74
2023/07/09 10:14:08;;;;;;;5.05;3.50;;;;;;;27.08;36.08;95156.72;4998588;28;20029;-74
2023/07/09 10:16:40;;;;;;;5.22;3.35;;;;;;;26.82;34.76;95152.50;4998628;28;20116;-75
2023/07/09 10:19:30;;;;;;;3.75;3.17;;;;;;;26.88;35.96;95156.94;4998432;28;20099;-74
2023/07/09 10:22:03;;;;;;;8.23;3.50;;;;;;;27.07;36.10;95157.78;5016552;28;20049;-74
2023/07/09 10:25:02;;;;;;;4.03;3.20;;;;;;;27.34;35.48;95161.00;4998044;28;20042;-74
2023/07/09 10:27:43;;;;;;;3.95;3.00;;;;;;;27.40;35.56;95165.44;4988758;28;20037;-75
2023/07/09 10:30:17;;;;;;;3.90;3.17;;;;;;;27.18;34.21;95157.88;5010883;28;20471;-75
2023/07/09 10:32:58;;;;;;;4.10;2.95;;;;;;;27.33;35.60;95154.03;5031764;28;20029;-74
2023/07/09 10:35:26;;;;;;;4.88;3.15;;;;;;;27.56;34.23;95159.50;4999028;28;20385;-72
2023/07/09 10:37:52;;;;;;;4.25;3.15;;;;;;;27.55;34.37;95157.03;5031723;28;20491;-75
2023/07/09 10:40:27;;;;;;;3.65;2.78;;;;;;;27.65;34.46;95161.88;5031481;28;20034;-73
2023/07/09 10:42:55;;;;;;;4.15;2.80;;;;;;;27.80;33.75;95149.78;4998827;28;20495;-73
2023/07/09 10:45:32;;;;;;;3.88;2.97;;;;;;;27.78;33.28;95135.00;4997576;28;20041;-73
2023/07/09 10:48:01;;;;;;;4.35;3.15;;;;;;;27.80;34.10;95143.63;4997600;28;20025;-74
2023/07/09 10:50:43;;;;;;;5.32;3.63;;;;;;;27.50;34.28;95146.25;4997665;28;20034;-73
2023/07/09 10:53:16;;;;;;;4.78;3.40;;;;;;;27.44;34.71;95149.81;4997557;28;20186;-74
2023/07/09 10:55:50;;;;;;;4.03;3.00;;;;;;;27.62;34.69;95137.25;4997816;28;20152;-74
2023/07/09 10:58:31;;;;;;;5.68;3.00;;;;;;;27.52;34.67;95144.97;4981971;28;20464;-74
2023/07/09 11:00:56;;;;;;;;;;;;;;;27.45;34.35;95146.91;5013965;28;20041;-74
2023/07/09 11:03:49;;;;;;;3.63;2.97;;;;;;;27.57;33.41;95134.44;5013659;28;20353;-74
2023/07/09 11:06:20;;;;;;;4.57;2.92;;;;;;;27.44;34.11;95150.59;4998945;28;20052;-74
2023/07/09 11:08:46;;;;;;;3.63;2.40;;;;;;;27.52;33.53;95149.50;5005846;28;20033;-74
2023/07/09 11:11:17;;;;;;;3.40;2.72;;;;;;;27.56;33.74;95154.16;5013501;28;20036;-74
2023/07/09 11:13:48;;;;;;;3.88;2.80;;;;;;;27.45;33.69;95148.78;5013264;28;20029;-74
2023/07/09 11:16:19;;;;;;;4.65;2.90;;;;;;;27.39;32.88;95143.28;4997347;28;20504;-74
2023/07/09 11:18:54;;;;;;;4.07;2.67;;;;;;;27.61;33.08;95143.63;4993628;28;20029;-74
2023/07/09 11:21:19;;;;;;;4.22;2.88;;;;;;;27.77;33.42;95142.19;5010120;28;20068;-74
2023/07/09 11:23:56;;;;;;;3.95;2.80;;;;;;;27.82;33.16;95144.22;5029680;28;20468;-74
2023/07/09 11:26:30;;;;;;;4.47;3.03;;;;;;;27.78;32.16;95151.03;5013185;28;20109;-74
2023/07/09 11:29:02;;;;;;;3.97;2.80;;;;;;;27.46;31.66;95150.41;4997067;28;20229;-74
2023/07/09 11:31:30;;;;;;;4.18;2.90;;;;;;;27.46;31.67;95148.53;5030856;28;20091;-74
2023/07/09 11:34:15;;;;;;;3.33;2.63;;;;;;;27.46;32.43;95135.19;5012705;28;20045;-74
2023/07/09 11:36:50;;;;;;;4.00;2.85;;;;;;;27.63;31.90;95132.72;5014153;28;20471;-74